sensor_id;sensor_type;location;lat;lon;timestamp;pressure;altitude;pressure_sealevel;temperature;humidity
52343;BME280;38277;51.972;4.624;2023-05-12T00:02:40;101920.0;;;15.0;83.0
52343;BME280;38277;51.972;4.624;2023-05-12T00:07:22;101920.0;;;15.0;83.0
52343;BME280;38277;51.972;4.624;2023-05-12T00:11:58;101930.0;;;14.9;83.0
52343;BME280;38277;51.972;4.624;2023-05-12T00:16:40;101920.0;;;14.8;82.5
52343;BME280;38277;51.972;4.624;2023-05-12T00:20:42;101920.0;;;14.8;82.5
52343;BME280;38277;51.972;4.624;2023-05-12T00:25:19;101920.0;;;14.8;82.5
52343;BME280;38277;51.972;4.624;2023-05-12T00:34:38;101910.0;;;14.7;82.5
52343;BME280;38277;51.972;4.624;2023-05-12T00:38:44;101910.0;;;14.7;82.0
52343;BME280;38277;51.972;4.624;2023-05-12T00:43:15;101900.0;;;14.6;82.0
52343;BME280;38277;51.972;4.624;2023-05-12T00:48:03;101910.0;;;14.5;82.5
52343;BME280;38277;51.972;4.624;2023-05-12T00:52:28;101910.0;;;14.5;82.5
52343;BME280;38277;51.972;4.624;2023-05-12T00:56:57;101910.0;;;14.4;82.5
52343;BME280;38277;51.972;4.624;2023-05-12T01:01:21;101900.0;;;14.3;83.0
52343;BME280;38277;51.972;4.624;2023-05-12T01:10:19;101910.0;;;14.1;83.5
52343;BME280;38277;51.972;4.624;2023-05-12T01:14:55;101900.0;;;14.1;84.0
52343;BME280;38277;51.972;4.624;2023-05-12T01:19:47;101900.0;;;14.0;84.0
52343;BME280;38277;51.972;4.624;2023-05-12T01:23:45;101910.0;;;13.9;84.0
52343;BME280;38277;51.972;4.624;2023-05-12T01:28:31;101890.0;;;13.9;84.5
52343;BME280;38277;51.972;4.624;2023-05-12T01:33:09;101900.0;;;13.8;84.5
52343;BME280;38277;51.972;4.624;2023-05-12T01:42:00;101900.0;;;13.7;85.0
52343;BME280;38277;51.972;4.624;2023-05-12T01:46:19;101890.0;;;13.6;85.0
52343;BME280;38277;51.972;4.624;2023-05-12T01:55:12;101910.0;;;13.6;85.5
52343;BME280;38277;51.972;4.624;2023-05-12T01:59:52;101910.0;;;13.6;85.5
52343;BME280;38277;51.972;4.624;2023-05-12T02:04:25;101910.0;;;13.6;86.0
52343;BME280;38277;51.972;4.624;2023-05-12T02:09:00;101910.0;;;13.6;86.0
52343;BME280;38277;51.972;4.624;2023-05-12T02:17:40;101900.0;;;13.5;86.0
52343;BME280;38277;51.972;4.624;2023-05-12T02:22:11;101900.0;;;13.5;86.0
52343;BME280;38277;51.972;4.624;2023-05-12T02:27:04;101890.0;;;13.4;86.0
52343;BME280;38277;51.972;4.624;2023-05-12T02:31:15;101890.0;;;13.4;86.5
52343;BME280;38277;51.972;4.624;2023-05-12T02:36:03;101880.0;;;13.4;86.5
52343;BME280;38277;51.972;4.624;2023-05-12T02:40:39;101880.0;;;13.4;87.0
52343;BME280;38277;51.972;4.624;2023-05-12T02:44:52;101890.0;;;13.4;87.0
52343;BME280;38277;51.972;4.624;2023-05-12T02:53:55;101870.0;;;13.4;87.5
52343;BME280;38277;51.972;4.624;2023-05-12T02:58:10;101880.0;;;13.3;87.5
52343;BME280;38277;51.972;4.624;2023-05-12T03:02:51;101870.0;;;13.3;88.0
52343;BME280;38277;51.972;4.624;2023-05-12T03:07:34;101860.0;;;13.3;88.0
52343;BME280;38277;51.972;4.624;2023-05-12T03:12:03;101860.0;;;13.3;88.0
52343;BME280;38277;51.972;4.624;2023-05-12T03:16:19;101860.0;;;13.3;88.0
52343;BME280;38277;51.972;4.624;2023-05-12T03:21:01;101860.0;;;13.2;88.0
52343;BME280;38277;51.972;4.624;2023-05-12T03:25:15;101850.0;;;13.2;88.5
52343;BME280;38277;51.972;4.624;2023-05-12T03:30:04;101850.0;;;13.2;88.5
52343;BME280;38277;51.972;4.624;2023-05-12T03:34:37;101850.0;;;13.2;89.0
52343;BME280;38277;51.972;4.624;2023-05-12T03:38:59;101840.0;;;13.1;89.0
52343;BME280;38277;51.972;4.624;2023-05-12T03:43:16;101840.0;;;13.1;89.0
52343;BME280;38277;51.972;4.624;2023-05-12T03:47:40;101820.0;;;13.1;89.5
52343;BME280;38277;51.972;4.624;2023-05-12T03:52:26;101830.0;;;13.1;89.5
52343;BME280;38277;51.972;4.624;2023-05-12T03:56:40;101830.0;;;13.1;90.0
52343;BME280;38277;51.972;4.624;2023-05-12T04:01:39;101840.0;;;13.1;90.0
52343;BME280;38277;51.972;4.624;2023-05-12T04:05:59;101840.0;;;13.1;90.5
52343;BME280;38277;51.972;4.624;2023-05-12T04:10:30;101820.0;;;13.1;90.5
52343;BME280;38277;51.972;4.624;2023-05-12T04:14:58;101830.0;;;13.1;91.0
52343;BME280;38277;51.972;4.624;2023-05-12T04:19:18;101840.0;;;13.1;91.0
52343;BME280;38277;51.972;4.624;2023-05-12T04:24:54;101830.0;;;13.1;91.5
52343;BME280;38277;51.972;4.624;2023-05-12T04:28:25;101830.0;;;13.2;91.5
52343;BME280;38277;51.972;4.624;2023-05-12T04:32:55;101830.0;;;13.2;92.0
52343;BME280;38277;51.972;4.624;2023-05-12T04:41:55;101830.0;;;13.2;92.5
52343;BME280;38277;51.972;4.624;2023-05-12T04:46:22;101820.0;;;13.2;92.5
52343;BME280;38277;51.972;4.624;2023-05-12T04:51:04;101840.0;;;13.3;93.0
52343;BME280;38277;51.972;4.624;2023-05-12T04:55:13;101830.0;;;13.3;93.0
52343;BME280;38277;51.972;4.624;2023-05-12T05:00:06;101840.0;;;13.3;93.5
52343;BME280;38277;51.972;4.624;2023-05-12T05:04:16;101840.0;;;13.3;93.5
52343;BME280;38277;51.972;4.624;2023-05-12T05:08:56;101840.0;;;13.4;94.0
52343;BME280;38277;51.972;4.624;2023-05-12T05:17:49;101850.0;;;13.5;94.0
52343;BME280;38277;51.972;4.624;2023-05-12T05:22:38;101850.0;;;13.6;94.0
52343;BME280;38277;51.972;4.624;2023-05-12T05:31:16;101860.0;;;13.7;94.5
52343;BME280;38277;51.972;4.624;2023-05-12T05:35:41;101860.0;;;13.8;94.5
52343;BME280;38277;51.972;4.624;2023-05-12T05:40:23;101870.0;;;13.8;94.5
52343;BME280;38277;51.972;4.624;2023-05-12T05:45:06;101870.0;;;13.9;95.0
52343;BME280;38277;51.972;4.624;2023-05-12T05:49:39;101870.0;;;13.9;95.0
52343;BME280;38277;51.972;4.624;2023-05-12T05:53:49;101880.0;;;14.0;95.5
52343;BME280;38277;51.972;4.624;2023-05-12T05:58:23;101880.0;;;14.1;95.5
52343;BME280;38277;51.972;4.624;2023-05-12T06:03:08;101890.0;;;14.2;95.0
52343;BME280;38277;51.972;4.624;2023-05-12T06:07:10;101880.0;;;14.3;94.5
52343;BME280;38277;51.972;4.624;2023-05-12T06:11:53;101890.0;;;14.4;94.0
52343;BME280;38277;51.972;4.624;2023-05-12T06:16:13;101880.0;;;14.5;93.5
52343;BME280;38277;51.972;4.624;2023-05-12T06:21:01;101880.0;;;14.6;93.0
52343;BME280;38277;51.972;4.624;2023-05-12T06:25:20;101900.0;;;14.6;92.5
52343;BME280;38277;51.972;4.624;2023-05-12T06:34:26;101900.0;;;14.8;92.5
52343;BME280;38277;51.972;4.624;2023-05-12T06:38:45;101890.0;;;15.0;91.5
52343;BME280;38277;51.972;4.624;2023-05-12T06:43:35;101900.0;;;15.2;91.0
52343;BME280;38277;51.972;4.624;2023-05-12T06:47:42;101900.0;;;15.3;90.0
52343;BME280;38277;51.972;4.624;2023-05-12T06:56:42;101920.0;;;15.4;89.0
52343;BME280;38277;51.972;4.624;2023-05-12T07:01:20;101920.0;;;15.4;88.5
52343;BME280;38277;51.972;4.624;2023-05-12T07:05:43;101920.0;;;15.4;87.5
52343;BME280;38277;51.972;4.624;2023-05-12T07:15:08;101920.0;;;15.4;87.5
52343;BME280;38277;51.972;4.624;2023-05-12T07:19:28;101920.0;;;15.5;87.5
52343;BME280;38277;51.972;4.624;2023-05-12T07:24:01;101930.0;;;15.7;86.5
52343;BME280;38277;51.972;4.624;2023-05-12T07:32:50;101930.0;;;16.1;85.5
52343;BME280;38277;51.972;4.624;2023-05-12T07:37:20;101920.0;;;16.3;85.0
52343;BME280;38277;51.972;4.624;2023-05-12T07:42:04;101930.0;;;16.6;84.0
52343;BME280;38277;51.972;4.624;2023-05-12T07:46:11;101930.0;;;16.8;83.0
52343;BME280;38277;51.972;4.624;2023-05-12T07:51:09;101930.0;;;16.8;81.5
52343;BME280;38277;51.972;4.624;2023-05-12T07:55:17;101940.0;;;16.9;81.0
52343;BME280;38277;51.972;4.624;2023-05-12T07:59:56;101940.0;;;17.1;81.0
52343;BME280;38277;51.972;4.624;2023-05-12T08:08:52;101950.0;;;17.4;79.5
52343;BME280;38277;51.972;4.624;2023-05-12T08:13:14;101950.0;;;17.6;78.0
52343;BME280;38277;51.972;4.624;2023-05-12T08:18:07;101950.0;;;17.6;76.5
52343;BME280;38277;51.972;4.624;2023-05-12T08:22:16;101960.0;;;17.6;77.0
52343;BME280;38277;51.972;4.624;2023-05-12T08:26:58;101960.0;;;17.8;77.0
52343;BME280;38277;51.972;4.624;2023-05-12T08:31:36;101950.0;;;18.0;75.5
52343;BME280;38277;51.972;4.624;2023-05-12T08:36:07;101950.0;;;18.2;75.0
52343;BME280;38277;51.972;4.624;2023-05-12T08:45:07;101960.0;;;18.6;73.0
52343;BME280;38277;51.972;4.624;2023-05-12T08:49:38;101950.0;;;18.7;71.5
52343;BME280;38277;51.972;4.624;2023-05-12T08:53:46;101960.0;;;18.9;71.0
52343;BME280;38277;51.972;4.624;2023-05-12T08:58:24;101960.0;;;19.1;70.5
52343;BME280;38277;51.972;4.624;2023-05-12T09:02:51;101960.0;;;19.3;69.0
52343;BME280;38277;51.972;4.624;2023-05-12T09:07:23;101950.0;;;19.5;68.0
52343;BME280;38277;51.972;4.624;2023-05-12T09:11:44;101970.0;;;19.6;67.5
52343;BME280;38277;51.972;4.624;2023-05-12T09:21:08;101960.0;;;19.7;67.0
52343;BME280;38277;51.972;4.624;2023-05-12T09:25:36;101960.0;;;19.9;65.5
52343;BME280;38277;51.972;4.624;2023-05-12T09:29:47;101950.0;;;20.0;65.5
52343;BME280;38277;51.972;4.624;2023-05-12T09:34:14;101960.0;;;20.2;65.0
52343;BME280;38277;51.972;4.624;2023-05-12T09:43:24;101960.0;;;20.4;64.5
52343;BME280;38277;51.972;4.624;2023-05-12T09:47:40;101980.0;;;20.6;64.0
52343;BME280;38277;51.972;4.624;2023-05-12T09:56:56;101970.0;;;20.8;62.5
52343;BME280;38277;51.972;4.624;2023-05-12T10:01:39;101970.0;;;21.0;62.5
52343;BME280;38277;51.972;4.624;2023-05-12T10:05:52;101970.0;;;21.2;62.0
52343;BME280;38277;51.972;4.624;2023-05-12T10:10:34;101970.0;;;21.3;61.0
52343;BME280;38277;51.972;4.624;2023-05-12T10:14:42;101960.0;;;21.4;61.0
52343;BME280;38277;51.972;4.624;2023-05-12T10:19:24;101980.0;;;21.7;60.5
52343;BME280;38277;51.972;4.624;2023-05-12T10:24:36;101960.0;;;22.1;58.0
52343;BME280;38277;51.972;4.624;2023-05-12T10:28:33;101980.0;;;22.3;55.5
52343;BME280;38277;51.972;4.624;2023-05-12T10:32:49;101970.0;;;22.5;53.5
52343;BME280;38277;51.972;4.624;2023-05-12T10:37:17;101970.0;;;22.7;53.0
52343;BME280;38277;51.972;4.624;2023-05-12T10:42:00;101980.0;;;22.8;51.0
52343;BME280;38277;51.972;4.624;2023-05-12T10:46:27;101980.0;;;23.0;51.5
52343;BME280;38277;51.972;4.624;2023-05-12T10:51:08;101970.0;;;23.1;51.0
52343;BME280;38277;51.972;4.624;2023-05-12T10:55:33;101980.0;;;22.9;50.5
52343;BME280;38277;51.972;4.624;2023-05-12T11:00:44;101980.0;;;23.2;50.5
52343;BME280;38277;51.972;4.624;2023-05-12T11:04:45;101970.0;;;23.8;50.0
52343;BME280;38277;51.972;4.624;2023-05-12T11:09:03;101980.0;;;24.7;48.5
52343;BME280;38277;51.972;4.624;2023-05-12T11:13:30;101970.0;;;25.5;45.5
52343;BME280;38277;51.972;4.624;2023-05-12T11:17:45;101970.0;;;25.6;44.0
52343;BME280;38277;51.972;4.624;2023-05-12T11:22:16;101970.0;;;25.7;44.0
52343;BME280;38277;51.972;4.624;2023-05-12T11:26:52;101960.0;;;26.2;42.0
52343;BME280;38277;51.972;4.624;2023-05-12T11:31:32;101970.0;;;26.5;41.5
52343;BME280;38277;51.972;4.624;2023-05-12T11:35:49;101980.0;;;26.7;40.5
52343;BME280;38277;51.972;4.624;2023-05-12T11:40:52;101980.0;;;26.4;40.5
52343;BME280;38277;51.972;4.624;2023-05-12T11:44:46;101980.0;;;26.3;40.5
52343;BME280;38277;51.972;4.624;2023-05-12T11:49:12;101990.0;;;26.2;39.0
52343;BME280;38277;51.972;4.624;2023-05-12T11:53:46;101990.0;;;26.9;39.0
52343;BME280;38277;51.972;4.624;2023-05-12T11:59:01;101970.0;;;27.7;34.0
52343;BME280;38277;51.972;4.624;2023-05-12T12:03:05;101980.0;;;28.4;33.5
52343;BME280;38277;51.972;4.624;2023-05-12T12:07:28;101990.0;;;29.1;31.5
52343;BME280;38277;51.972;4.624;2023-05-12T12:12:09;101980.0;;;30.0;28.5
52343;BME280;38277;51.972;4.624;2023-05-12T12:16:38;101990.0;;;30.6;28.0
52343;BME280;38277;51.972;4.624;2023-05-12T12:20:59;101990.0;;;31.1;27.0
52343;BME280;38277;51.972;4.624;2023-05-12T12:25:35;102010.0;;;31.2;26.0
52343;BME280;38277;51.972;4.624;2023-05-12T12:29:52;102010.0;;;31.1;26.5
52343;BME280;38277;51.972;4.624;2023-05-12T12:34:42;102000.0;;;31.5;26.0
52343;BME280;38277;51.972;4.624;2023-05-12T12:39:00;102000.0;;;32.6;25.0
52343;BME280;38277;51.972;4.624;2023-05-12T12:43:15;102000.0;;;33.7;23.5
52343;BME280;38277;51.972;4.624;2023-05-12T12:47:58;102000.0;;;34.1;23.0
52343;BME280;38277;51.972;4.624;2023-05-12T12:56:57;102000.0;;;34.3;23.0
52343;BME280;38277;51.972;4.624;2023-05-12T13:01:17;102000.0;;;32.9;24.0
52343;BME280;38277;51.972;4.624;2023-05-12T13:05:51;102000.0;;;32.7;24.5
52343;BME280;38277;51.972;4.624;2023-05-12T13:10:35;101990.0;;;33.5;24.5
52343;BME280;38277;51.972;4.624;2023-05-12T13:14:47;101990.0;;;34.5;22.5
52343;BME280;38277;51.972;4.624;2023-05-12T13:19:17;101980.0;;;36.0;21.5
52343;BME280;38277;51.972;4.624;2023-05-12T13:24:04;101990.0;;;36.8;20.0
52343;BME280;38277;51.972;4.624;2023-05-12T13:32:43;101990.0;;;36.4;25.0
52343;BME280;38277;51.972;4.624;2023-05-12T13:37:35;102000.0;;;35.7;25.5
52343;BME280;38277;51.972;4.624;2023-05-12T13:41:46;101990.0;;;32.9;29.5
52343;BME280;38277;51.972;4.624;2023-05-12T13:51:02;102000.0;;;28.4;38.0
52343;BME280;38277;51.972;4.624;2023-05-12T13:55:39;102010.0;;;28.7;39.0
52343;BME280;38277;51.972;4.624;2023-05-12T13:59:54;102010.0;;;28.7;38.0
52343;BME280;38277;51.972;4.624;2023-05-12T14:08:54;102000.0;;;32.1;33.0
52343;BME280;38277;51.972;4.624;2023-05-12T14:13:16;102010.0;;;31.2;34.0
52343;BME280;38277;51.972;4.624;2023-05-12T14:18:02;102010.0;;;31.5;33.5
52343;BME280;38277;51.972;4.624;2023-05-12T14:22:24;102010.0;;;31.4;33.5
52343;BME280;38277;51.972;4.624;2023-05-12T14:27:24;102000.0;;;31.0;33.0
52343;BME280;38277;51.972;4.624;2023-05-12T14:31:17;102010.0;;;31.2;33.0
52343;BME280;38277;51.972;4.624;2023-05-12T14:36:07;102000.0;;;31.0;33.0
52343;BME280;38277;51.972;4.624;2023-05-12T14:40:11;102010.0;;;28.9;36.0
52343;BME280;38277;51.972;4.624;2023-05-12T14:45:20;102020.0;;;27.1;39.5
52343;BME280;38277;51.972;4.624;2023-05-12T14:49:13;102040.0;;;25.8;42.5
52343;BME280;38277;51.972;4.624;2023-05-12T14:54:09;102030.0;;;25.0;44.5
52343;BME280;38277;51.972;4.624;2023-05-12T14:58:34;102040.0;;;24.5;46.5
52343;BME280;38277;51.972;4.624;2023-05-12T15:02:50;102040.0;;;24.3;47.0
52343;BME280;38277;51.972;4.624;2023-05-12T15:07:14;102040.0;;;24.5;47.0
52343;BME280;38277;51.972;4.624;2023-05-12T15:11:55;102040.0;;;24.7;46.5
52343;BME280;38277;51.972;4.624;2023-05-12T15:16:11;102050.0;;;24.6;45.0
52343;BME280;38277;51.972;4.624;2023-05-12T15:21:04;102050.0;;;24.4;45.5
52343;BME280;38277;51.972;4.624;2023-05-12T15:25:24;102040.0;;;25.5;45.0
52343;BME280;38277;51.972;4.624;2023-05-12T15:30:07;102040.0;;;27.1;41.0
52343;BME280;38277;51.972;4.624;2023-05-12T15:34:19;102050.0;;;27.2;40.0
52343;BME280;38277;51.972;4.624;2023-05-12T15:39:07;102050.0;;;26.8;40.5
52343;BME280;38277;51.972;4.624;2023-05-12T15:43:39;102060.0;;;26.0;42.0
52343;BME280;38277;51.972;4.624;2023-05-12T15:47:53;102060.0;;;25.2;43.0
52343;BME280;38277;51.972;4.624;2023-05-12T15:52:35;102050.0;;;26.0;42.5
52343;BME280;38277;51.972;4.624;2023-05-12T15:56:51;102040.0;;;27.7;39.0
52343;BME280;38277;51.972;4.624;2023-05-12T16:01:20;102030.0;;;28.5;37.0
52343;BME280;38277;51.972;4.624;2023-05-12T16:10:14;102030.0;;;27.6;38.0
52343;BME280;38277;51.972;4.624;2023-05-12T16:15:04;102040.0;;;27.1;39.0
52343;BME280;38277;51.972;4.624;2023-05-12T16:19:28;102040.0;;;26.8;39.5
52343;BME280;38277;51.972;4.624;2023-05-12T16:28:35;102050.0;;;26.2;41.0
52343;BME280;38277;51.972;4.624;2023-05-12T16:32:46;102040.0;;;26.4;41.0
52343;BME280;38277;51.972;4.624;2023-05-12T16:37:34;102050.0;;;26.7;40.5
52343;BME280;38277;51.972;4.624;2023-05-12T16:46:33;102060.0;;;26.2;41.0
52343;BME280;38277;51.972;4.624;2023-05-12T16:50:44;102060.0;;;25.6;42.5
52343;BME280;38277;51.972;4.624;2023-05-12T16:55:10;102070.0;;;25.2;44.0
52343;BME280;38277;51.972;4.624;2023-05-12T17:00:09;102090.0;;;25.0;42.0
52343;BME280;38277;51.972;4.624;2023-05-12T17:04:39;102100.0;;;24.6;36.5
52343;BME280;38277;51.972;4.624;2023-05-12T17:09:03;102120.0;;;24.2;37.5
52343;BME280;38277;51.972;4.624;2023-05-12T17:13:14;102120.0;;;23.4;44.0
52343;BME280;38277;51.972;4.624;2023-05-12T17:17:48;102140.0;;;22.3;47.5
52343;BME280;38277;51.972;4.624;2023-05-12T17:22:48;102130.0;;;21.3;50.5
52343;BME280;38277;51.972;4.624;2023-05-12T17:26:49;102150.0;;;20.7;53.5
52343;BME280;38277;51.972;4.624;2023-05-12T17:31:57;102150.0;;;20.2;55.0
52343;BME280;38277;51.972;4.624;2023-05-12T17:35:55;102110.0;;;19.9;55.5
52343;BME280;38277;51.972;4.624;2023-05-12T17:40:53;102090.0;;;19.7;56.0
52343;BME280;38277;51.972;4.624;2023-05-12T17:45:04;102100.0;;;19.6;56.5
52343;BME280;38277;51.972;4.624;2023-05-12T17:49:31;102110.0;;;19.6;57.0
52343;BME280;38277;51.972;4.624;2023-05-12T17:53:55;102100.0;;;19.6;57.5
52343;BME280;38277;51.972;4.624;2023-05-12T17:58:36;102110.0;;;19.6;57.5
52343;BME280;38277;51.972;4.624;2023-05-12T18:03:07;102120.0;;;19.6;57.5
52343;BME280;38277;51.972;4.624;2023-05-12T18:07:10;102130.0;;;19.6;58.0
52343;BME280;38277;51.972;4.624;2023-05-12T18:11:43;102140.0;;;19.7;57.5
52343;BME280;38277;51.972;4.624;2023-05-12T18:16:43;102150.0;;;19.7;58.0
52343;BME280;38277;51.972;4.624;2023-05-12T18:20:43;102150.0;;;19.7;58.5
52343;BME280;38277;51.972;4.624;2023-05-12T18:26:03;102150.0;;;19.7;59.0
52343;BME280;38277;51.972;4.624;2023-05-12T18:29:43;102150.0;;;19.6;57.0
52343;BME280;38277;51.972;4.624;2023-05-12T18:38:55;102160.0;;;19.3;57.5
52343;BME280;38277;51.972;4.624;2023-05-12T18:43:20;102170.0;;;19.3;58.0
52343;BME280;38277;51.972;4.624;2023-05-12T18:47:51;102170.0;;;19.3;57.5
52343;BME280;38277;51.972;4.624;2023-05-12T18:57:06;102180.0;;;19.3;57.5
52343;BME280;38277;51.972;4.624;2023-05-12T19:01:26;102190.0;;;19.4;58.0
52343;BME280;38277;51.972;4.624;2023-05-12T19:05:55;102210.0;;;19.4;57.5
52343;BME280;38277;51.972;4.624;2023-05-12T19:15:06;102220.0;;;19.3;59.0
52343;BME280;38277;51.972;4.624;2023-05-12T19:19:20;102220.0;;;19.3;59.0
52343;BME280;38277;51.972;4.624;2023-05-12T19:23:49;102230.0;;;19.2;59.5
52343;BME280;38277;51.972;4.624;2023-05-12T19:28:25;102230.0;;;19.2;58.5
52343;BME280;38277;51.972;4.624;2023-05-12T19:32:49;102220.0;;;19.1;58.5
52343;BME280;38277;51.972;4.624;2023-05-12T19:37:13;102230.0;;;19.1;58.5
52343;BME280;38277;51.972;4.624;2023-05-12T19:41:47;102230.0;;;19.0;58.0
52343;BME280;38277;51.972;4.624;2023-05-12T19:46:32;102240.0;;;19.0;58.5
52343;BME280;38277;51.972;4.624;2023-05-12T19:50:52;102240.0;;;19.0;59.5
52343;BME280;38277;51.972;4.624;2023-05-12T19:55:29;102240.0;;;18.9;60.5
52343;BME280;38277;51.972;4.624;2023-05-12T19:59:40;102250.0;;;18.8;61.0
52343;BME280;38277;51.972;4.624;2023-05-12T20:04:21;102250.0;;;18.7;61.0
52343;BME280;38277;51.972;4.624;2023-05-12T20:09:04;102250.0;;;18.7;61.5
52343;BME280;38277;51.972;4.624;2023-05-12T20:17:50;102260.0;;;18.6;62.5
52343;BME280;38277;51.972;4.624;2023-05-12T20:22:35;102260.0;;;18.5;63.0
52343;BME280;38277;51.972;4.624;2023-05-12T20:31:25;102270.0;;;18.3;64.0
52343;BME280;38277;51.972;4.624;2023-05-12T20:35:59;102260.0;;;18.2;64.5
52343;BME280;38277;51.972;4.624;2023-05-12T20:40:28;102270.0;;;18.2;65.0
52343;BME280;38277;51.972;4.624;2023-05-12T20:44:58;102270.0;;;18.1;65.0
52343;BME280;38277;51.972;4.624;2023-05-12T20:53:39;102280.0;;;18.0;66.0
52343;BME280;38277;51.972;4.624;2023-05-12T20:58:10;102280.0;;;17.9;66.0
52343;BME280;38277;51.972;4.624;2023-05-12T21:02:43;102280.0;;;17.9;67.0
52343;BME280;38277;51.972;4.624;2023-05-12T21:07:28;102280.0;;;17.8;67.0
52343;BME280;38277;51.972;4.624;2023-05-12T21:12:16;102290.0;;;17.7;68.0
52343;BME280;38277;51.972;4.624;2023-05-12T21:16:35;102290.0;;;17.7;68.5
52343;BME280;38277;51.972;4.624;2023-05-12T21:20:50;102300.0;;;17.7;69.0
52343;BME280;38277;51.972;4.624;2023-05-12T21:25:28;102290.0;;;17.7;69.5
52343;BME280;38277;51.972;4.624;2023-05-12T21:30:25;102300.0;;;17.7;70.0
52343;BME280;38277;51.972;4.624;2023-05-12T21:34:58;102300.0;;;17.7;70.0
52343;BME280;38277;51.972;4.624;2023-05-12T21:38:45;102300.0;;;17.7;70.5
52343;BME280;38277;51.972;4.624;2023-05-12T21:43:11;102300.0;;;17.7;70.5
52343;BME280;38277;51.972;4.624;2023-05-12T21:48:22;102310.0;;;17.7;71.0
52343;BME280;38277;51.972;4.624;2023-05-12T21:52:23;102290.0;;;17.7;71.0
52343;BME280;38277;51.972;4.624;2023-05-12T21:56:58;102310.0;;;17.7;71.5
52343;BME280;38277;51.972;4.624;2023-05-12T22:01:19;102310.0;;;17.7;71.5
52343;BME280;38277;51.972;4.624;2023-05-12T22:05:57;102310.0;;;17.7;72.0
52343;BME280;38277;51.972;4.624;2023-05-12T22:14:43;102320.0;;;17.6;72.5
52343;BME280;38277;51.972;4.624;2023-05-12T22:19:19;102320.0;;;17.6;73.0
52343;BME280;38277;51.972;4.624;2023-05-12T22:24:07;102320.0;;;17.6;73.0
52343;BME280;38277;51.972;4.624;2023-05-12T22:28:28;102320.0;;;17.6;73.0
52343;BME280;38277;51.972;4.624;2023-05-12T22:32:50;102320.0;;;17.6;73.5
52343;BME280;38277;51.972;4.624;2023-05-12T22:37:20;102330.0;;;17.6;73.5
52343;BME280;38277;51.972;4.624;2023-05-12T22:41:57;102330.0;;;17.6;73.5
52343;BME280;38277;51.972;4.624;2023-05-12T22:50:58;102330.0;;;17.5;74.0
52343;BME280;38277;51.972;4.624;2023-05-12T22:55:12;102350.0;;;17.5;74.0
52343;BME280;38277;51.972;4.624;2023-05-12T22:59:43;102340.0;;;17.5;74.0
52343;BME280;38277;51.972;4.624;2023-05-12T23:04:31;102330.0;;;17.5;74.0
52343;BME280;38277;51.972;4.624;2023-05-12T23:09:23;102330.0;;;17.5;74.0
52343;BME280;38277;51.972;4.624;2023-05-12T23:13:13;102330.0;;;17.4;74.0
52343;BME280;38277;51.972;4.624;2023-05-12T23:17:55;102330.0;;;17.3;73.5
52343;BME280;38277;51.972;4.624;2023-05-12T23:22:38;102340.0;;;17.2;74.0
52343;BME280;38277;51.972;4.624;2023-05-12T23:27:10;102330.0;;;17.2;74.0
52343;BME280;38277;51.972;4.624;2023-05-12T23:31:28;102330.0;;;17.1;73.5
52343;BME280;38277;51.972;4.624;2023-05-12T23:35:49;102330.0;;;17.1;73.5
52343;BME280;38277;51.972;4.624;2023-05-12T23:40:29;102320.0;;;17.1;73.5
52343;BME280;38277;51.972;4.624;2023-05-12T23:44:45;102330.0;;;17.0;73.0
52343;BME280;38277;51.972;4.624;2023-05-12T23:54:05;102330.0;;;17.0;72.5
52343;BME280;38277;51.972;4.624;2023-05-12T23:58:20;102330.0;;;17.0;72.5
